Time;durP1;ratioP1;P1;durP2;ratioP2;P2;SDS_P1;SDS_P2;PMS_P1;PMS_P2;Temp;Humidity;BMP_temperature;BMP_pressure;BME280_temperature;BME280_humidity;BME280_pressure;Samples;Min_cycle;Max_cycle;Signal;HPM_P1;HPM_P2
2023/07/28 00:02:08;;;;;;;;;2.00;2.00;;;;;20.70;77.00;100599.09;4998447;28;45424;-45
2023/07/28 00:04:36;;;;;;;;;2.50;1.75;;;;;20.64;76.42;100594.25;4998590;28;71205;-45
2023/07/28 00:07:03;;;;;;;;;5.75;3.00;;;;;20.62;77.03;100590.84;4998550;28;45732;-48
2023/07/28 00:09:28;;;;;;;;;2.00;2.00;;;;;20.61;76.74;100600.81;4999741;28;45298;-44
2023/07/28 00:11:53;;;;;;;;;2.67;2.67;;;;;20.60;77.41;100598.25;4998730;28;68760;-45
2023/07/28 00:14:19;;;;;;;;;2.00;2.00;;;;;20.61;76.87;100603.50;4998791;28;66695;-46
2023/07/28 00:16:44;;;;;;;;;2.33;1.00;;;;;20.57;77.50;100602.09;4999052;28;63198;-45
2023/07/28 00:19:10;;;;;;;;;1.50;1.50;;;;;20.56;76.69;100602.22;4999462;28;45384;-44
2023/07/28 00:21:35;;;;;;;;;1.33;1.33;;;;;20.55;77.05;100590.59;4997346;28;70606;-46
2023/07/28 00:24:00;;;;;;;;;4.00;2.00;;;;;20.58;77.66;100584.88;4999790;28;60064;-46
2023/07/28 00:26:25;;;;;;;;;2.25;2.25;;;;;20.56;77.07;100589.59;5000020;28;67741;-47
2023/07/28 00:28:51;;;;;;;;;2.50;2.00;;;;;20.55;77.21;100589.75;4999297;28;45577;-46
2023/07/28 00:31:16;;;;;;;;;7.00;4.67;;;;;20.56;77.39;100592.28;4998586;28;64092;-48
2023/07/28 00:33:42;;;;;;;;;7.33;7.33;;;;;20.56;77.02;100581.50;4998050;28;75360;-46
2023/07/28 00:36:07;;;;;;;;;9.00;4.67;;;;;20.56;76.83;100594.13;4999328;28;45439;-44
2023/07/28 00:38:33;;;;;;;;;7.67;5.33;;;;;20.56;76.88;100594.13;4999237;28;45830;-45
2023/07/28 00:40:58;;;;;;;;;4.33;4.00;;;;;20.56;77.27;100588.72;4999300;28;45416;-46
2023/07/28 00:43:23;;;;;;;;;3.00;2.00;;;;;20.57;76.48;100591.31;4998326;28;73811;-49
2023/07/28 00:45:49;;;;;;;;;0.00;0.00;;;;;20.58;77.15;100589.44;4998168;28;68014;-48
2023/07/28 00:48:15;;;;;;;;;1.25;1.25;;;;;20.56;77.47;100586.03;4997745;28;45471;-48
2023/07/28 00:50:41;;;;;;;;;3.00;2.00;;;;;20.59;77.79;100591.16;4999778;28;45465;-47
2023/07/28 00:53:07;;;;;;;;;1.00;1.00;;;;;20.61;76.91;100591.84;5002179;28;47176;-45
2023/07/28 00:55:32;;;;;;;;;1.75;1.00;;;;;20.62;77.39;100598.94;5002576;28;45277;-44
2023/07/28 00:57:58;;;;;;;;;1.50;1.00;;;;;20.61;77.96;100590.00;5002445;28;45400;-46
2023/07/28 01:00:24;;;;;;;;;2.00;2.00;;;;;20.61;77.06;100598.09;4998060;28;45396;-45
2023/07/28 01:02:49;;;;;;;;;0.75;0.75;;;;;20.63;77.55;100596.09;4998357;28;72508;-47
2023/07/28 01:05:14;;;;;;;;;1.50;1.00;;;;;20.64;77.69;100594.25;5001278;28;68905;-47
2023/07/28 01:07:54;;;;;;;;;0.25;0.25;;;;;20.67;77.74;100593.94;5001193;28;45991;-46
2023/07/28 01:10:26;;;;;;;;;1.00;1.00;;;;;20.67;77.24;100591.25;4997792;28;45438;-47
2023/07/28 01:12:51;;;;;;;;;1.75;1.75;;;;;20.64;77.82;100595.09;5001789;28;46442;-46
2023/07/28 01:15:17;;;;;;;;;1.00;1.00;;;;;20.65;77.88;100595.97;5000989;28;73170;-46
2023/07/28 01:17:42;;;;;;;;;1.75;1.75;;;;;20.59;77.79;100589.28;5002192;28;45359;-46
2023/07/28 01:20:08;;;;;;;;;4.00;1.00;;;;;20.57;78.09;100599.41;5000882;28;45326;-47
2023/07/28 01:22:54;;;;;;;;;0.75;0.75;;;;;20.59;77.26;100600.09;5001973;28;46060;-48
2023/07/28 01:25:29;;;;;;;;;2.00;2.00;;;;;20.61;78.25;100598.09;5000743;28;45460;-50
2023/07/28 01:27:55;;;;;;;;;1.00;1.00;;;;;20.57;77.36;100594.00;5000547;28;45435;-50
2023/07/28 01:30:21;;;;;;;;;0.50;0.50;;;;;20.57;77.86;100596.69;5000660;28;69228;-47
2023/07/28 01:32:47;;;;;;;;;2.00;2.00;;;;;20.56;78.63;100592.28;5001787;28;46331;-47
2023/07/28 01:35:12;;;;;;;;;2.25;1.00;;;;;20.54;78.35;100596.97;5001807;28;45179;-45
2023/07/28 01:37:38;;;;;;;;;1.00;1.00;;;;;20.52;78.16;100592.72;5001632;28;53318;-47
2023/07/28 01:40:03;;;;;;;;;2.50;1.00;;;;;20.49;78.70;100589.34;5001104;28;64495;-46
2023/07/28 01:42:29;;;;;;;;;2.75;2.00;;;;;20.50;78.26;100584.78;5001427;28;45410;-48
2023/07/28 01:44:54;;;;;;;;;2.50;1.75;;;;;20.50;78.36;100582.91;5001356;28;50584;-46
2023/07/28 01:47:19;;;;;;;;;1.25;1.25;;;;;20.50;78.99;100590.16;5000986;28;67899;-45
2023/07/28 01:49:45;;;;;;;;;3.25;1.00;;;;;20.49;78.09;100583.94;5000554;28;66134;-45
2023/07/28 01:52:10;;;;;;;;;1.00;1.00;;;;;20.49;78.74;100591.16;5000793;28;68631;-45
2023/07/28 01:54:35;;;;;;;;;1.00;1.00;;;;;20.48;79.47;100579.53;5000482;28;71245;-45
2023/07/28 01:57:01;;;;;;;;;1.00;1.00;;;;;20.45;78.56;100579.78;5001116;28;55898;-47
2023/07/28 01:59:26;;;;;;;;;1.50;1.50;;;;;20.45;79.00;100578.94;5000265;28;69127;-48
2023/07/28 02:01:51;;;;;;;;;1.50;1.00;;;;;20.44;79.35;100578.13;4996106;28;73943;-46
2023/07/28 02:04:16;;;;;;;;;3.25;1.00;;;;;20.44;78.70;100580.81;5012770;28;63457;-46
2023/07/28 02:06:42;;;;;;;;;2.00;2.00;;;;;20.46;79.33;100580.66;4998687;28;59427;-49
2023/07/28 02:09:07;;;;;;;;;1.00;1.00;;;;;20.45;79.31;100587.91;4999323;28;45413;-48
2023/07/28 02:11:33;;;;;;;;;1.25;1.25;;;;;20.46;78.69;100586.06;4999116;28;45991;-47
2023/07/28 02:13:58;;;;;;;;;1.00;1.00;;;;;20.47;79.30;100587.78;4998717;28;45430;-46
2023/07/28 02:16:24;;;;;;;;;3.75;2.00;;;;;20.48;78.79;100586.75;4998269;28;60170;-48
2023/07/28 02:18:49;;;;;;;;;1.50;1.50;;;;;20.50;78.87;100587.47;4998978;28;45780;-46
2023/07/28 02:21:14;;;;;;;;;2.00;2.00;;;;;20.52;79.55;100577.38;4998257;28;66750;-46
2023/07/28 02:23:40;;;;;;;;;3.25;1.00;;;;;20.55;78.97;100568.13;5000953;28;45468;-51
2023/07/28 02:26:05;;;;;;;;;2.00;1.50;;;;;20.55;79.12;100570.84;5001863;28;45643;-50
2023/07/28 02:28:30;;;;;;;;;0.50;0.50;;;;;20.54;78.67;100571.81;4998889;28;71356;-48
2023/07/28 02:30:56;;;;;;;;;1.00;1.00;;;;;20.53;79.28;100570.94;4998285;28;66327;-45
2023/07/28 02:33:21;;;;;;;;;1.75;1.50;;;;;20.52;79.39;100563.88;4999502;28;73033;-47
2023/07/28 02:35:46;;;;;;;;;1.00;1.00;;;;;20.53;79.45;100570.94;5000020;28;64911;-46
2023/07/28 02:38:12;;;;;;;;;2.00;2.00;;;;;20.52;79.00;100565.72;5000846;28;45459;-48
2023/07/28 02:40:37;;;;;;;;;2.25;1.00;;;;;20.50;79.38;100555.91;5000606;28;45472;-48
2023/07/28 02:43:02;;;;;;;;;2.00;2.00;;;;;20.48;79.09;100560.59;5000815;28;45496;-47
2023/07/28 02:45:28;;;;;;;;;0.25;0.25;;;;;20.51;79.34;100570.28;5000487;28;48069;-49
2023/07/28 02:47:53;;;;;;;;;1.00;1.00;;;;;20.51;79.67;100562.16;4999871;28;61555;-45
2023/07/28 02:50:18;;;;;;;;;0.00;0.00;;;;;20.53;78.91;100568.25;4999708;28;73041;-50
2023/07/28 02:52:43;;;;;;;;;1.00;1.00;;;;;20.49;78.96;100567.72;5000580;28;45378;-47
2023/07/28 02:55:09;;;;;;;;;0.75;0.75;;;;;20.44;79.67;100570.00;4999935;28;62265;-50
2023/07/28 02:57:34;;;;;;;;;0.25;0.25;;;;;20.41;79.83;100570.28;5000802;28;45491;-47
2023/07/28 02:59:59;;;;;;;;;3.00;2.00;;;;;20.41;79.64;100572.16;4999183;28;73903;-46
2023/07/28 03:02:25;;;;;;;;;1.00;1.00;;;;;20.44;79.65;100567.31;4999633;28;72245;-45
2023/07/28 03:04:50;;;;;;;;;1.00;1.00;;;;;20.45;79.71;100569.00;4999836;28;60597;-45
2023/07/28 03:07:16;;;;;;;;;1.00;1.00;;;;;20.44;79.32;100572.72;4999727;28;57473;-47
2023/07/28 03:09:41;;;;;;;;;0.00;0.00;;;;;20.46;79.43;100569.84;5000296;28;46158;-46
2023/07/28 03:12:07;;;;;;;;;0.75;0.75;;;;;20.49;79.52;100574.94;5000326;28;46040;-46
2023/07/28 03:14:33;;;;;;;;;1.25;0.75;;;;;20.49;79.16;100569.56;5000211;28;45855;-47
2023/07/28 03:16:58;;;;;;;;;0.00;0.00;;;;;20.50;79.28;100573.97;4999882;28;57786;-47
2023/07/28 03:19:23;;;;;;;;;1.00;1.00;;;;;20.50;79.67;100576.66;4999267;28;68700;-46
2023/07/28 03:21:48;;;;;;;;;2.00;0.25;;;;;20.53;79.48;100576.34;4999758;28;55466;-48
2023/07/28 03:24:14;;;;;;;;;1.00;1.00;;;;;20.55;79.39;100579.78;4999592;28;59955;-46
2023/07/28 03:26:39;;;;;;;;;1.00;1.00;;;;;20.55;79.54;100579.78;4999996;28;45268;-46
2023/07/28 03:29:04;;;;;;;;;2.75;1.00;;;;;20.56;79.47;100576.09;4998980;28;75058;-48
2023/07/28 03:31:30;;;;;;;;;1.00;1.00;;;;;20.57;79.16;100577.78;4999961;28;45376;-46
2023/07/28 03:33:55;;;;;;;;;2.50;1.00;;;;;20.52;79.92;100571.09;4999013;28;66362;-46
2023/07/28 03:36:21;;;;;;;;;1.00;1.00;;;;;20.49;79.46;100580.34;4999276;28;65630;-44
2023/07/28 03:38:46;;;;;;;;;1.25;0.25;;;;;20.49;79.28;100572.25;4999882;28;45475;-50
2023/07/28 03:41:12;;;;;;;;;0.25;0.25;;;;;20.48;79.30;100571.41;4999963;28;45467;-49
2023/07/28 03:43:38;;;;;;;;;1.00;1.00;;;;;20.43;81.30;100575.56;4998573;28;45207;-46
2023/07/28 03:46:03;;;;;;;;;1.00;1.00;;;;;20.40;80.10;100574.00;4999623;28;45496;-47
2023/07/28 03:48:28;;;;;;;;;0.50;0.00;;;;;20.39;80.90;100568.72;4999599;28;46094;-46
2023/07/28 03:50:53;;;;;;;;;1.00;1.00;;;;;20.38;80.12;100567.03;4999061;28;65924;-45
2023/07/28 03:53:19;;;;;;;;;1.50;0.00;;;;;20.40;80.53;100563.22;4999220;28;59125;-48
2023/07/28 03:55:44;;;;;;;;;0.00;0.00;;;;;20.40;80.74;100565.91;4999610;28;45325;-45
2023/07/28 03:58:09;;;;;;;;;0.25;0.25;;;;;20.37;81.05;100560.78;4998251;28;74364;-46
2023/07/28 04:00:35;;;;;;;;;0.00;0.00;;;;;20.38;81.35;100561.66;4999151;28;47671;-48
2023/07/28 04:03:00;;;;;;;;;0.00;0.00;;;;;20.36;81.66;100558.22;4998699;28;67219;-48
2023/07/28 04:05:25;;;;;;;;;1.00;1.00;;;;;20.38;81.79;100558.94;4999070;28;65118;-46
2023/07/28 04:07:51;;;;;;;;;0.25;0.25;;;;;20.40;81.84;100559.63;4998520;28;71377;-50
2023/07/28 04:10:16;;;;;;;;;0.00;0.00;;;;;20.41;83.50;100562.19;4997171;28;71840;-49
2023/07/28 04:12:41;;;;;;;;;0.50;0.00;;;;;20.39;82.20;100563.31;4999586;28;45369;-46
2023/07/28 04:15:07;;;;;;;;;0.50;0.50;;;;;20.40;82.78;100565.91;4997466;28;45336;-49
2023/07/28 04:17:33;;;;;;;;;1.00;1.00;;;;;20.40;82.83;100552.41;4998234;28;47206;-48
2023/07/28 04:19:58;;;;;;;;;0.00;0.00;;;;;20.42;83.10;100563.88;4997154;28;71323;-50
2023/07/28 04:22:23;;;;;;;;;0.00;0.00;;;;;20.44;83.43;100566.44;4997993;28;45612;-49
2023/07/28 04:24:49;;;;;;;;;0.00;0.00;;;;;20.46;82.84;100562.59;4998577;28;47266;-49
2023/07/28 04:27:14;;;;;;;;;0.00;0.00;;;;;20.47;83.42;100560.75;5002028;28;46173;-47
2023/07/28 04:29:40;;;;;;;;;0.00;0.00;;;;;20.49;83.05;100561.44;5002850;28;45396;-49
2023/07/28 04:32:05;;;;;;;;;0.00;0.00;;;;;20.50;83.15;100557.75;5002976;28;45404;-48
2023/07/28 04:34:33;;;;;;;;;0.75;0.75;;;;;20.53;83.67;100564.72;5002765;28;45334;-50
2023/07/28 04:36:59;;;;;;;;;0.00;0.00;;;;;20.52;82.85;100560.31;5002772;28;45352;-49
2023/07/28 04:39:24;;;;;;;;;0.00;0.00;;;;;20.50;83.05;100557.75;5002640;28;45398;-50
2023/07/28 04:41:49;;;;;;;;;0.00;0.00;;;;;20.52;83.37;100571.09;5000449;28;66489;-50
2023/07/28 04:44:15;;;;;;;;;0.00;0.00;;;;;20.50;83.48;100565.84;5002904;28;45405;-50
2023/07/28 04:46:40;;;;;;;;;0.50;0.50;;;;;20.47;83.13;100569.69;4996913;28;70565;-49
2023/07/28 04:49:05;;;;;;;;;1.00;0.00;;;;;20.46;83.77;100568.00;4992940;28;70703;-50
2023/07/28 04:51:31;;;;;;;;;0.00;0.00;;;;;20.43;82.99;100567.47;5001733;28;61907;-50
2023/07/28 04:53:56;;;;;;;;;1.75;0.00;;;;;20.42;83.67;100574.69;5001664;28;67938;-50
2023/07/28 04:56:21;;;;;;;;;0.75;0.75;;;;;20.42;83.49;100576.56;5002443;28;45511;-50
2023/07/28 04:58:47;;;;;;;;;0.00;0.00;;;;;20.41;83.43;100570.28;5001552;28;69428;-50
2023/07/28 05:01:13;;;;;;;;;0.00;0.00;;;;;20.43;83.65;100572.88;5002943;28;45799;-47
2023/07/28 05:03:38;;;;;;;;;0.00;0.00;;;;;20.43;84.49;100572.88;5002756;28;45473;-50
2023/07/28 05:06:04;;;;;;;;;0.00;0.00;;;;;20.42;83.58;100574.69;5002157;28;46009;-49
2023/07/28 05:08:29;;;;;;;;;0.00;0.00;;;;;20.42;83.85;100573.84;5001338;28;45440;-47
2023/07/28 05:10:56;;;;;;;;;0.00;0.00;;;;;20.43;83.77;100575.56;5001428;28;68383;-49
2023/07/28 05:13:21;;;;;;;;;2.00;0.00;;;;;20.44;83.81;100572.72;5002242;28;45354;-46
2023/07/28 05:15:46;;;;;;;;;0.00;0.00;;;;;20.46;84.00;100570.69;5001901;28;45377;-45
2023/07/28 05:18:12;;;;;;;;;0.00;0.00;;;;;20.46;83.91;100569.84;5001109;28;70207;-48
2023/07/28 05:20:37;;;;;;;;;0.00;0.00;;;;;20.47;84.32;100567.00;5001326;28;64255;-46
2023/07/28 05:23:02;;;;;;;;;0.00;0.00;;;;;20.50;83.62;100569.41;5000080;28;64067;-45
2023/07/28 05:25:27;;;;;;;;;0.50;0.00;;;;;20.51;84.45;100575.66;5001190;28;63945;-44
2023/07/28 05:27:53;;;;;;;;;1.00;0.00;;;;;20.53;84.08;100570.13;5001589;28;47307;-46
2023/07/28 05:30:18;;;;;;;;;0.00;0.00;;;;;20.53;83.86;100570.13;4999603;28;68452;-46
2023/07/28 05:32:44;;;;;;;;;0.00;0.00;;;;;20.50;83.82;100572.09;5001768;28;45297;-48
2023/07/28 05:35:09;;;;;;;;;0.00;0.00;;;;;20.49;83.42;100574.94;5001617;28;46747;-45
2023/07/28 05:37:34;;;;;;;;;0.00;0.00;;;;;20.49;83.32;100583.06;5001458;28;59325;-45
2023/07/28 05:40:00;;;;;;;;;0.00;0.00;;;;;20.48;83.52;100579.53;5002013;28;45321;-49
2023/07/28 05:42:25;;;;;;;;;0.00;0.00;;;;;20.48;83.99;100578.66;4992599;28;69465;-46
2023/07/28 05:44:52;;;;;;;;;0.00;0.00;;;;;20.48;84.34;100575.94;4995999;28;50255;-46
2023/07/28 05:47:18;;;;;;;;;0.00;0.00;;;;;20.47;84.17;100580.50;5001537;28;45797;-45
2023/07/28 05:49:43;;;;;;;;;0.00;0.00;;;;;20.50;84.15;100582.06;5000793;28;63896;-45
2023/07/28 05:52:08;;;;;;;;;0.00;0.00;;;;;20.52;83.92;100579.22;5001687;28;45250;-45
2023/07/28 05:54:34;;;;;;;;;0.50;0.50;;;;;20.55;84.43;100578.94;4999138;28;72283;-45
2023/07/28 05:56:59;;;;;;;;;0.00;0.00;;;;;20.58;83.65;100573.22;4999091;28;67660;-46
2023/07/28 05:59:24;;;;;;;;;0.00;0.00;;;;;20.58;83.75;100575.94;5000760;28;59238;-48
2023/07/28 06:01:50;;;;;;;;;0.00;0.00;;;;;20.61;84.20;100575.63;5000804;28;57018;-47
2023/07/28 06:04:15;;;;;;;;;0.00;0.00;;;;;20.65;83.71;100579.75;4998828;28;45477;-46
2023/07/28 06:06:40;;;;;;;;;0.00;0.00;;;;;20.66;84.11;100585.00;5000833;28;45484;-47
2023/07/28 06:09:06;;;;;;;;;0.50;0.00;;;;;20.70;84.15;100587.44;5000131;28;65811;-45
2023/07/28 06:11:31;;;;;;;;;0.00;0.00;;;;;20.74;84.16;100583.44;5000583;28;63127;-45
2023/07/28 06:13:57;;;;;;;;;0.00;0.00;;;;;20.76;83.46;100589.56;5000105;28;73311;-46
2023/07/28 06:16:24;;;;;;;;;0.00;0.00;;;;;20.79;83.89;100584.72;4998830;28;45523;-46
2023/07/28 06:18:49;;;;;;;;;0.00;0.00;;;;;20.79;83.20;100590.13;5000090;28;45646;-46
2023/07/28 06:21:14;;;;;;;;;1.50;0.00;;;;;20.80;83.43;100594.50;5000190;28;65437;-45
2023/07/28 06:23:40;;;;;;;;;0.00;0.00;;;;;20.77;83.78;100589.41;4999742;28;70748;-48
2023/07/28 06:26:05;;;;;;;;;0.00;0.00;;;;;20.76;84.28;100595.81;4999636;28;45429;-48
2023/07/28 06:28:30;;;;;;;;;1.25;0.00;;;;;20.74;84.03;100602.34;4999168;28;45854;-45
2023/07/28 06:30:57;;;;;;;;;0.00;0.00;;;;;20.75;83.41;100606.75;5000852;28;45418;-45
2023/07/28 06:33:22;;;;;;;;;0.00;0.00;;;;;20.75;84.64;100604.06;5000306;28;45491;-46
2023/07/28 06:35:48;;;;;;;;;0.00;0.00;;;;;20.75;83.44;100606.75;4999789;28;45510;-47
2023/07/28 06:38:13;;;;;;;;;0.00;0.00;;;;;20.73;84.31;100604.22;4998584;28;71434;-47
2023/07/28 06:40:38;;;;;;;;;0.00;0.00;;;;;20.74;84.20;100600.53;5000318;28;63274;-49
2023/07/28 06:43:04;;;;;;;;;0.00;0.00;;;;;20.74;83.95;100600.53;5000437;28;45606;-47
2023/07/28 06:45:29;;;;;;;;;1.00;0.00;;;;;20.76;83.95;100605.78;4999731;28;57199;-48
2023/07/28 06:47:54;;;;;;;;;0.00;0.00;;;;;20.73;84.37;100614.16;4999043;28;66348;-46
2023/07/28 06:50:20;;;;;;;;;0.00;0.00;;;;;20.75;83.84;100612.16;5000808;28;45589;-45
2023/07/28 06:52:46;;;;;;;;;1.00;0.00;;;;;20.77;84.15;100615.59;4999612;28;73670;-45
2023/07/28 06:55:12;;;;;;;;;0.00;0.00;;;;;20.82;84.42;100608.72;5000688;28;45496;-45
2023/07/28 06:57:37;;;;;;;;;2.00;1.00;;;;;20.87;84.69;100612.84;4999743;28;54600;-46
2023/07/28 07:00:03;;;;;;;;;0.00;0.00;;;;;20.89;83.45;100613.53;5000234;28;45422;-45
2023/07/28 07:02:28;;;;;;;;;0.00;0.00;;;;;20.92;83.77;100622.19;5000208;28;47092;-50
2023/07/28 07:04:54;;;;;;;;;1.00;0.75;;;;;21.01;84.07;100615.03;4999675;28;59550;-47
2023/07/28 07:07:19;;;;;;;;;1.00;1.00;;;;;21.09;83.82;100622.41;4999453;28;65480;-47
2023/07/28 07:09:45;;;;;;;;;1.50;1.00;;;;;21.11;83.26;100621.25;4998259;28;68847;-48
2023/07/28 07:12:10;;;;;;;;;0.75;0.00;;;;;21.10;82.81;100624.97;4999928;28;46914;-45
2023/07/28 07:14:35;;;;;;;;;0.00;0.00;;;;;21.12;83.48;100622.13;4999827;28;45384;-46
2023/07/28 07:17:01;;;;;;;;;0.00;0.00;;;;;21.12;82.73;100630.25;4999711;28;59296;-46
2023/07/28 07:19:28;;;;;;;;;0.00;0.00;;;;;21.10;83.04;100629.53;5000124;28;45195;-48
2023/07/28 07:21:53;;;;;;;;;0.00;0.00;;;;;21.06;83.47;100644.34;4998648;28;47197;-46
2023/07/28 07:24:18;;;;;;;;;2.00;0.00;;;;;21.03;83.45;100639.22;5000002;28;45694;-45
2023/07/28 07:26:44;;;;;;;;;1.00;1.00;;;;;20.99;84.23;100647.63;4999087;28;66379;-44
2023/07/28 07:29:10;;;;;;;;;0.00;0.00;;;;;20.95;86.18;100642.66;5000064;28;45526;-46
2023/07/28 07:31:35;;;;;;;;;1.50;0.25;;;;;20.88;85.67;100647.81;4998793;28;72180;-48
2023/07/28 07:34:01;;;;;;;;;1.00;0.00;;;;;20.87;86.75;100654.25;4998884;28;66602;-46
2023/07/28 07:36:26;;;;;;;;;0.00;0.00;;;;;20.84;87.83;100649.13;5000272;28;45411;-46
2023/07/28 07:38:51;;;;;;;;;0.00;0.00;;;;;20.82;87.74;100648.44;4998785;28;45615;-45
2023/07/28 07:41:19;;;;;;;;;0.00;0.00;;;;;20.80;88.58;100653.13;4999628;28;53677;-47
2023/07/28 07:43:45;;;;;;;;;1.00;1.00;;;;;20.77;89.41;100654.25;4998208;28;45645;-48
2023/07/28 07:46:10;;;;;;;;;2.00;0.00;;;;;20.73;89.53;100662.78;4999565;28;45344;-45
2023/07/28 07:48:36;;;;;;;;;0.00;0.00;;;;;20.74;90.48;100659.09;4999459;28;48668;-45
2023/07/28 07:51:01;;;;;;;;;2.25;0.75;;;;;20.75;90.42;100666.22;4998556;28;74292;-46
2023/07/28 07:53:26;;;;;;;;;2.50;1.50;;;;;20.77;89.67;100662.38;4999304;28;51789;-45
2023/07/28 07:55:52;;;;;;;;;1.00;1.00;;;;;20.82;90.49;100667.34;4998840;28;64758;-45
2023/07/28 07:58:17;;;;;;;;;2.00;1.00;;;;;20.86;89.29;100652.53;4997916;28;55561;-47
2023/07/28 08:00:44;;;;;;;;;1.00;1.00;;;;;20.92;90.24;100654.63;4997542;28;67798;-46
2023/07/28 08:03:10;;;;;;;;;0.00;0.00;;;;;20.98;89.49;100656.75;4999194;28;45481;-46
2023/07/28 08:05:35;;;;;;;;;0.75;0.75;;;;;21.03;89.42;100659.00;4999625;28;45432;-49
2023/07/28 08:08:00;;;;;;;;;1.25;0.50;;;;;21.07;89.64;100660.41;5011587;28;45437;-47
2023/07/28 08:10:26;;;;;;;;;0.25;0.25;;;;;21.10;89.26;100659.28;4993017;28;45412;-45
2023/07/28 08:12:51;;;;;;;;;0.50;0.50;;;;;21.12;88.51;100657.28;4998049;28;45529;-49
2023/07/28 08:15:16;;;;;;;;;1.00;0.00;;;;;21.17;89.29;100657.66;4998704;28;64411;-47
2023/07/28 08:17:42;;;;;;;;;1.50;0.75;;;;;21.28;89.85;100656.63;4999393;28;45386;-45
2023/07/28 08:20:08;;;;;;;;;2.00;1.00;;;;;21.37;88.17;100663.84;4998907;28;50313;-45
2023/07/28 08:22:33;;;;;;;;;1.00;1.00;;;;;21.43;88.31;100660.53;4999155;28;45330;-49
2023/07/28 08:24:59;;;;;;;;;1.00;1.00;;;;;21.49;88.22;100665.31;4999361;28;45519;-46
2023/07/28 08:27:24;;;;;;;;;1.75;1.00;;;;;21.57;88.18;100661.88;4998123;28;65426;-47
2023/07/28 08:29:49;;;;;;;;;1.00;1.00;;;;;21.61;88.17;100665.16;4999257;28;45302;-45
2023/07/28 08:32:15;;;;;;;;;2.25;1.00;;;;;21.67;87.74;100663.69;4998301;28;62178;-46
2023/07/28 08:34:40;;;;;;;;;3.00;2.00;;;;;21.69;87.82;100659.81;4998372;28;69337;-45
2023/07/28 08:37:05;;;;;;;;;1.00;1.00;;;;;21.72;87.53;100662.25;4998194;28;68106;-45
2023/07/28 08:39:32;;;;;;;;;1.00;1.00;;;;;21.76;87.77;100666.34;4997786;28;47101;-48
2023/07/28 08:41:59;;;;;;;;;1.00;1.00;;;;;21.81;88.28;100676.69;4994478;28;45433;-45
2023/07/28 08:44:25;;;;;;;;;0.25;0.25;;;;;21.84;86.91;100667.41;4990146;28;45376;-47
2023/07/28 08:46:50;;;;;;;;;0.00;0.00;;;;;21.93;86.45;100669.22;4999003;28;45445;-48
2023/07/28 08:49:16;;;;;;;;;1.00;0.00;;;;;22.11;86.52;100666.47;4998312;28;70347;-45
2023/07/28 08:51:42;;;;;;;;;0.50;0.00;;;;;22.25;85.13;100674.09;4998128;28;69412;-47
2023/07/28 08:54:07;;;;;;;;;0.00;0.00;;;;;22.30;84.97;100674.44;4999094;28;45455;-47
2023/07/28 08:56:33;;;;;;;;;1.00;0.00;;;;;22.35;84.36;100670.44;4997781;28;45432;-45
2023/07/28 08:58:59;;;;;;;;;3.00;0.00;;;;;22.40;84.34;100676.28;4998214;28;63832;-46
2023/07/28 09:01:25;;;;;;;;;0.00;0.00;;;;;22.46;84.11;100675.63;4997075;28;45382;-47
2023/07/28 09:03:50;;;;;;;;;0.00;0.00;;;;;22.50;83.91;100676.16;4999037;28;45403;-45
2023/07/28 09:06:15;;;;;;;;;0.00;0.00;;;;;22.43;83.51;100674.06;4998551;28;45396;-46
2023/07/28 09:08:43;;;;;;;;;0.50;0.00;;;;;22.37;83.25;100677.44;4998444;28;73171;-47
2023/07/28 09:11:08;;;;;;;;;0.25;0.25;;;;;22.34;83.22;100682.28;5000199;28;45428;-47
2023/07/28 09:13:41;;;;;;;;;0.50;0.50;;;;;22.28;83.37;100675.59;4981568;28;56437;-47
2023/07/28 09:16:17;;;;;;;;;0.00;0.00;;;;;22.22;83.77;100685.22;5001509;28;45591;-45
2023/07/28 09:18:43;;;;;;;;;0.00;0.00;;;;;22.24;83.58;100680.50;5001539;28;47094;-47
2023/07/28 09:21:20;;;;;;;;;0.00;0.00;;;;;22.23;83.57;100688.78;5001694;28;45453;-45
2023/07/28 09:23:46;;;;;;;;;0.00;0.00;;;;;22.25;83.68;100686.75;5001731;28;45498;-46
2023/07/28 09:26:12;;;;;;;;;0.25;0.25;;;;;22.21;83.14;100694.34;5001816;28;45845;-45
2023/07/28 09:28:38;;;;;;;;;2.00;0.25;;;;;22.15;83.02;100694.97;5000076;28;46097;-44
2023/07/28 09:31:05;;;;;;;;;0.00;0.00;;;;;22.13;83.54;100692.41;5000212;28;45482;-45
2023/07/28 09:33:32;;;;;;;;;0.00;0.00;;;;;22.15;83.90;100694.97;5002115;28;45536;-46
2023/07/28 09:36:07;;;;;;;;;1.00;1.00;;;;;22.18;84.32;100689.25;5001667;28;45152;-49
2023/07/28 09:38:41;;;;;;;;;2.00;2.00;;;;;22.17;83.64;100679.41;5000530;28;45371;-47
2023/07/28 09:41:10;;;;;;;;;1.00;1.00;;;;;22.22;84.17;100676.25;5001922;28;45531;-49
2023/07/28 09:43:36;;;;;;;;;3.75;3.75;;;;;22.35;84.08;100678.56;5001996;28;45500;-48
2023/07/28 09:46:07;;;;;;;;;0.00;0.00;;;;;22.54;84.13;100678.41;5001638;28;45424;-47
2023/07/28 09:48:33;;;;;;;;;1.00;1.00;;;;;22.77;83.22;100675.16;5001438;28;46337;-46
2023/07/28 09:51:04;;;;;;;;;5.33;5.00;;;;;22.92;82.06;100675.44;5001423;28;45431;-48
2023/07/28 09:53:32;;;;;;;;;0.25;0.25;;;;;22.98;81.89;100682.06;5000388;28;45352;-45
2023/07/28 09:55:58;;;;;;;;;2.25;1.00;;;;;23.01;81.85;100679.03;4983842;28;45717;-46
2023/07/28 09:58:24;;;;;;;;;0.00;0.00;;;;;23.02;81.44;100678.84;4995593;28;70193;-45
2023/07/28 10:00:50;;;;;;;;;3.00;2.25;;;;;23.02;81.30;100673.44;4992850;28;68410;-45
2023/07/28 10:03:16;;;;;;;;;1.75;1.00;;;;;22.99;80.84;100675.63;4983247;28;45496;-45
2023/07/28 10:05:42;;;;;;;;;2.75;1.25;;;;;22.88;81.01;100672.19;5001205;28;45424;-49
2023/07/28 10:08:08;;;;;;;;;1.75;1.00;;;;;22.82;81.09;100666.56;5000924;28;58509;-48
2023/07/28 10:10:33;;;;;;;;;2.25;1.00;;;;;22.79;81.10;100676.72;5000829;28;61095;-46
2023/07/28 10:12:59;;;;;;;;;1.75;1.00;;;;;22.81;81.28;100676.53;5001542;28;45291;-48
2023/07/28 10:15:30;;;;;;;;;1.00;1.00;;;;;22.93;81.98;100671.69;5001000;28;45237;-46
2023/07/28 10:17:59;;;;;;;;;4.50;4.50;;;;;23.27;81.89;100674.47;4999492;28;47809;-49
2023/07/28 10:20:38;;;;;;;;;2.00;2.00;;;;;23.97;80.89;100666.19;4999307;28;45408;-49
2023/07/28 10:23:15;;;;;;;;;7.00;7.00;;;;;24.61;77.32;100667.22;4998783;28;45547;-46
2023/07/28 10:25:41;;;;;;;;;4.33;4.33;;;;;24.90;74.42;100654.06;5000746;28;45535;-47
2023/07/28 10:28:24;;;;;;;;;14.00;12.00;;;;;25.06;73.13;100664.09;5000544;28;46971;-48
2023/07/28 10:30:52;;;;;;;;;18.33;17.00;;;;;25.50;73.40;100658.13;5000531;28;45479;-46
2023/07/28 10:33:30;;;;;;;;;16.67;13.67;;;;;26.09;67.04;100662.22;5000842;28;45376;-45
2023/07/28 10:35:58;;;;;;;;;38.67;33.67;;;;;26.65;68.54;100650.97;5000687;28;45365;-44
2023/07/28 10:38:31;;;;;;;;;5.25;5.25;;;;;28.57;66.20;100643.56;5000513;28;46240;-48
2023/07/28 10:41:13;;;;;;;;;4.75;4.25;;;;;30.78;61.61;100646.13;4979905;28;45486;-46
2023/07/28 10:43:39;;;;;;;;;1.25;1.25;;;;;32.04;56.59;100638.41;5000160;28;45437;-47
2023/07/28 10:46:06;;;;;;;;;8.00;8.00;;;;;32.11;53.90;100635.59;4996108;28;45472;-47
2023/07/28 10:48:31;;;;;;;;;2.75;2.00;;;;;31.88;53.40;100636.22;4999206;28;46867;-45
2023/07/28 10:50:57;;;;;;;;;0.75;0.00;;;;;31.44;52.44;100636.00;5000459;28;45403;-47
2023/07/28 10:53:22;;;;;;;;;9.25;7.75;;;;;31.37;53.44;100632.44;5000723;28;45321;-46
2023/07/28 10:55:47;;;;;;;;;9.75;9.75;;;;;30.79;51.84;100631.34;4999827;28;60984;-45
2023/07/28 10:58:13;;;;;;;;;0.00;0.00;;;;;29.83;53.08;100633.44;4999342;28;74569;-46
2023/07/28 11:00:38;;;;;;;;;0.00;0.00;;;;;28.92;54.27;100629.91;4998029;28;71539;-45
2023/07/28 11:03:03;;;;;;;;;0.00;0.00;;;;;28.11;55.16;100641.28;4999438;28;69685;-46
2023/07/28 11:05:30;;;;;;;;;0.75;0.75;;;;;27.71;57.50;100645.25;4999293;28;66664;-47
2023/07/28 11:07:57;;;;;;;;;1.00;1.00;;;;;27.44;58.26;100641.38;4998886;28;47319;-47
2023/07/28 11:10:23;;;;;;;;;1.00;1.00;;;;;26.94;59.75;100638.41;5000119;28;45397;-47
2023/07/28 11:12:50;;;;;;;;;0.25;0.25;;;;;26.45;62.15;100639.75;5000205;28;45179;-46
2023/07/28 11:15:16;;;;;;;;;1.25;1.25;;;;;26.28;63.92;100639.03;5000201;28;46413;-45
2023/07/28 11:17:45;;;;;;;;;6.50;5.50;;;;;26.22;64.92;100643.34;4999876;28;45407;-48
2023/07/28 11:20:13;;;;;;;;;1.00;1.00;;;;;25.99;64.86;100645.22;4995971;28;45400;-47